Time;durP1;ratioP1;P1;durP2;ratioP2;P2;SDS_P1;SDS_P2;PMS_P1;PMS_P2;Temp;Humidity;BMP_temperature;BMP_pressure;BME280_temperature;BME280_humidity;BME280_pressure;Samples;Min_cycle;Max_cycle;Signal;HPM_P1;HPM_P2
2021/10/31 00:01:19;;;;;;;5.88;4.70;;;;;;;14.44;65.24;102257.47;5037723;27;102313;-56
2021/10/31 00:03:45;;;;;;;6.82;4.85;;;;;;;14.46;65.56;102262.66;5032262;27;102344;-56
2021/10/31 00:06:11;;;;;;;5.82;4.47;;;;;;;14.46;65.49;102257.19;5033732;28;102246;-56
2021/10/31 00:08:38;;;;;;;6.30;4.93;;;;;;;14.45;65.58;102261.84;5034444;27;103848;-55
2021/10/31 00:11:06;;;;;;;7.72;5.03;;;;;;;14.45;65.66;102256.38;5034107;27;102179;-56
2021/10/31 00:13:35;;;;;;;6.30;5.00;;;;;;;14.46;65.48;102262.66;5034324;27;102674;-57
2021/10/31 00:16:02;;;;;;;7.13;5.25;;;;;;;14.45;65.59;102256.38;5037433;27;102238;-57
2021/10/31 00:18:28;;;;;;;6.95;5.15;;;;;;;14.45;65.31;102253.63;5035727;27;103881;-56
2021/10/31 00:20:56;;;;;;;7.25;5.20;;;;;;;14.45;65.26;102250.88;5033479;27;103260;-56
2021/10/31 00:23:23;;;;;;;6.35;5.25;;;;;;;14.45;65.60;102245.41;5028784;27;102581;-56
2021/10/31 00:25:50;;;;;;;7.78;5.28;;;;;;;14.45;65.34;102245.41;5036752;27;102186;-56
2021/10/31 00:28:16;;;;;;;6.85;5.03;;;;;;;14.45;65.35;102239.94;5032422;27;104364;-57
2021/10/31 00:30:44;;;;;;;7.70;5.47;;;;;;;14.45;65.22;102250.88;5043728;27;102498;-56
2021/10/31 00:33:11;;;;;;;7.60;5.63;;;;;;;14.45;65.32;102239.94;5048846;27;102100;-56
2021/10/31 00:35:38;;;;;;;7.00;5.35;;;;;;;14.44;65.62;102243.78;5051961;27;102195;-56
2021/10/31 00:38:04;;;;;;;7.80;6.20;;;;;;;14.45;65.51;102239.94;5049433;27;102983;-56
2021/10/31 00:40:33;;;;;;;8.50;6.07;;;;;;;14.46;65.59;102251.72;5045363;27;101842;-57
2021/10/31 00:42:59;;;;;;;7.22;5.35;;;;;;;14.45;65.58;102250.88;5032135;27;104108;-56
2021/10/31 00:45:26;;;;;;;7.68;5.90;;;;;;;14.45;65.54;102244.59;5038556;27;102743;-56
2021/10/31 00:47:55;;;;;;;5.95;5.30;;;;;;;14.45;65.31;102250.88;5035418;27;103922;-56
2021/10/31 00:50:22;;;;;;;8.77;6.25;;;;;;;14.45;65.40;102245.41;5039506;28;102599;-56
2021/10/31 00:52:48;;;;;;;8.60;5.68;;;;;;;14.45;65.75;102250.88;5038483;27;102173;-56
2021/10/31 00:55:15;;;;;;;7.07;5.88;;;;;;;14.45;65.69;102248.16;5035271;27;102370;-56
2021/10/31 00:57:42;;;;;;;6.57;5.65;;;;;;;14.45;65.61;102247.31;5035006;28;103324;-56
2021/10/31 01:00:16;;;;;;;7.03;6.07;;;;;;;14.45;65.56;102245.41;5037002;27;102320;-56
2021/10/31 01:02:43;;;;;;;7.35;6.45;;;;;;;14.45;65.46;102239.94;5035638;27;102265;-56
2021/10/31 01:05:13;;;;;;;8.40;6.35;;;;;;;14.45;65.35;102250.06;5033596;27;102202;-56
2021/10/31 01:08:17;;;;;;;8.50;6.60;;;;;;;14.45;65.74;102245.41;5036102;27;104076;-57
2021/10/31 01:11:06;;;;;;;8.15;6.45;;;;;;;14.45;65.34;102239.94;5024649;27;102182;-56
2021/10/31 01:13:45;;;;;;;8.05;6.25;;;;;;;14.45;65.61;102245.41;5028537;27;102248;-56
2021/10/31 01:16:19;;;;;;;;;;;;;;;14.45;65.42;102239.94;5025594;27;102160;-57
2021/10/31 01:19:01;;;;;;;7.43;5.90;;;;;;;14.44;65.45;102238.28;5023449;28;104061;-56
2021/10/31 01:21:42;;;;;;;7.47;5.88;;;;;;;14.45;65.36;102226.25;5037840;27;102149;-56
2021/10/31 01:24:35;;;;;;;7.32;6.22;;;;;;;14.45;65.46;102228.16;5018132;27;102493;-57
2021/10/31 01:27:11;;;;;;;9.70;6.47;;;;;;;14.44;65.60;102224.59;5037315;27;102064;-56
2021/10/31 01:29:48;;;;;;;8.77;7.25;;;;;;;14.45;65.38;102218.03;5029463;27;102836;-56
2021/10/31 01:32:28;;;;;;;7.60;6.50;;;;;;;14.45;65.53;102222.69;5023146;27;102222;-56
2021/10/31 01:35:02;;;;;;;7.97;6.60;;;;;;;14.45;65.44;102222.69;5026763;27;102120;-56
2021/10/31 01:37:46;;;;;;;6.97;6.28;;;;;;;14.45;65.58;102223.50;5026012;27;102660;-57
2021/10/31 01:40:18;;;;;;;8.38;6.25;;;;;;;14.46;65.65;102218.84;5027705;27;104148;-57
2021/10/31 01:42:56;;;;;;;9.27;7.22;;;;;;;14.45;65.45;102218.03;5037167;27;103071;-57
2021/10/31 01:45:31;;;;;;;7.85;6.47;;;;;;;14.45;65.63;102212.53;5024045;27;102040;-56
2021/10/31 01:48:07;;;;;;;7.13;6.18;;;;;;;14.44;65.56;102205.41;5033920;27;102320;-56
2021/10/31 01:50:39;;;;;;;8.13;6.43;;;;;;;14.45;65.39;102218.03;5034446;27;106441;-56
2021/10/31 01:53:11;;;;;;;7.85;5.95;;;;;;;14.46;65.72;102219.69;5028112;27;102222;-56
2021/10/31 01:55:43;;;;;;;8.20;6.85;;;;;;;14.45;65.36;102218.03;5034390;27;102322;-56
2021/10/31 01:58:11;;;;;;;8.88;6.53;;;;;;;14.45;65.35;102212.53;5034116;27;102158;-57
2021/10/31 02:00:41;;;;;;;8.90;6.70;;;;;;;14.46;65.56;102214.22;5031865;27;102984;-56
2021/10/31 02:03:09;;;;;;;7.93;6.28;;;;;;;14.45;65.39;102204.31;5034424;27;102104;-56
2021/10/31 02:05:38;;;;;;;7.95;5.93;;;;;;;14.45;65.54;102207.06;5035803;27;102420;-56
2021/10/31 02:08:10;;;;;;;7.53;6.32;;;;;;;14.46;65.59;102208.75;5031830;27;102446;-57
2021/10/31 02:10:39;;;;;;;8.43;6.10;;;;;;;14.46;65.38;102210.63;5031791;27;103980;-56
2021/10/31 02:13:09;;;;;;;7.03;6.30;;;;;;;14.46;65.46;102207.88;5036057;27;102220;-56
2021/10/31 02:15:37;;;;;;;8.00;6.65;;;;;;;14.46;65.55;102206.00;5032956;27;103049;-57
2021/10/31 02:18:04;;;;;;;7.50;6.60;;;;;;;14.46;65.54;102197.78;5030562;27;102185;-57
2021/10/31 02:20:33;;;;;;;6.88;6.15;;;;;;;14.46;65.45;102203.25;5035311;27;104032;-56
2021/10/31 02:23:03;;;;;;;7.73;6.30;;;;;;;14.47;65.36;102193.94;5033044;27;102258;-56
2021/10/31 02:25:30;;;;;;;7.10;6.18;;;;;;;14.46;65.58;102192.31;5034323;27;102321;-56
2021/10/31 02:27:56;;;;;;;9.85;6.35;;;;;;;14.46;65.68;102197.78;5036476;27;102448;-56
2021/10/31 02:30:23;;;;;;;6.70;6.00;;;;;;;14.47;65.50;102193.13;5031902;27;104034;-56
2021/10/31 02:32:51;;;;;;;7.55;6.63;;;;;;;14.46;65.65;102200.53;5034950;27;102156;-57
2021/10/31 02:35:18;;;;;;;9.23;6.72;;;;;;;14.47;65.58;102193.13;5034547;27;102594;-57
2021/10/31 02:37:45;;;;;;;9.90;7.00;;;;;;;14.46;65.56;102185.97;5030683;27;102162;-57
2021/10/31 02:40:15;;;;;;;9.05;6.68;;;;;;;14.47;65.76;102193.13;5030295;28;103967;-57
2021/10/31 02:42:42;;;;;;;7.25;6.20;;;;;;;14.46;65.68;102192.31;5032936;27;102342;-56
2021/10/31 02:45:09;;;;;;;8.88;6.60;;;;;;;14.46;65.81;102186.81;5029296;27;102293;-56
2021/10/31 02:47:39;;;;;;;8.00;6.45;;;;;;;14.46;65.45;102181.34;5035657;27;102304;-56
2021/10/31 02:50:10;;;;;;;8.63;6.65;;;;;;;14.47;65.57;102182.16;5022608;27;103854;-56
2021/10/31 02:52:53;;;;;;;7.65;6.40;;;;;;;14.46;65.39;102181.34;5032974;27;102352;-56
2021/10/31 02:55:26;;;;;;;9.05;6.60;;;;;;;14.47;65.72;102183.00;5024778;27;102537;-57
2021/10/31 02:57:56;;;;;;;8.18;6.45;;;;;;;14.45;65.67;102174.19;5034522;27;102342;-56
2021/10/31 03:00:25;;;;;;;9.43;6.53;;;;;;;14.46;65.60;102164.91;5030565;27;103968;-56
2021/10/31 03:02:52;;;;;;;;;;;;;;;14.46;65.27;102164.91;5028261;27;102523;-56
2021/10/31 03:05:18;;;;;;;8.00;5.93;;;;;;;14.45;65.45;102163.22;5033662;27;102416;-56
2021/10/31 03:07:46;;;;;;;8.45;6.70;;;;;;;14.46;65.45;102153.09;5035444;27;102429;-56
2021/10/31 03:10:15;;;;;;;8.48;6.68;;;;;;;14.45;65.70;102165.97;5033880;27;103943;-57
2021/10/31 03:12:44;;;;;;;7.47;6.50;;;;;;;14.45;65.42;102174.19;5030611;27;102314;-56
2021/10/31 03:15:12;;;;;;;8.48;6.07;;;;;;;14.45;65.62;102174.19;5026262;27;102340;-57
2021/10/31 03:17:40;;;;;;;7.90;6.30;;;;;;;14.46;65.63;102173.13;5033831;27;103624;-56
2021/10/31 03:20:06;;;;;;;8.43;6.45;;;;;;;14.46;65.50;102169.53;5035286;27;103862;-56
2021/10/31 03:22:33;;;;;;;7.30;6.35;;;;;;;14.45;65.46;102174.19;5028439;27;102128;-56
2021/10/31 03:25:01;;;;;;;7.60;5.97;;;;;;;14.46;65.63;102170.38;5029484;28;102174;-56
2021/10/31 03:27:27;;;;;;;7.63;6.38;;;;;;;14.45;65.75;102167.91;5039055;27;102396;-56
2021/10/31 03:29:55;;;;;;;8.82;6.70;;;;;;;14.44;65.50;102169.81;5035743;27;103705;-56
2021/10/31 03:32:22;;;;;;;6.95;6.20;;;;;;;14.45;65.46;102163.22;5037159;27;102418;-56
2021/10/31 03:34:48;;;;;;;8.13;6.63;;;;;;;14.44;65.72;102167.06;5034585;27;102544;-56
2021/10/31 03:37:15;;;;;;;6.95;5.88;;;;;;;14.45;65.67;102168.72;5038503;27;103230;-56
2021/10/31 03:39:42;;;;;;;7.68;6.30;;;;;;;14.45;65.54;102167.91;5034966;27;103883;-56
2021/10/31 03:42:08;;;;;;;7.00;6.15;;;;;;;14.45;65.46;102168.72;5035648;27;103000;-56
2021/10/31 03:44:38;;;;;;;7.45;6.40;;;;;;;14.45;65.63;102171.47;5028644;27;102314;-56
2021/10/31 03:47:07;;;;;;;7.00;6.10;;;;;;;14.45;65.55;102168.72;5038088;27;102663;-56
2021/10/31 03:49:33;;;;;;;;;;;;;;;14.44;65.54;102164.34;5034994;27;103864;-56
2021/10/31 03:52:01;;;;;;;7.03;5.93;;;;;;;14.46;65.38;102175.88;5037982;27;102150;-56
2021/10/31 03:54:28;;;;;;;7.35;6.57;;;;;;;14.43;65.80;102170.91;5034396;27;102399;-56
2021/10/31 03:56:56;;;;;;;7.20;6.07;;;;;;;14.44;65.67;102161.59;5038687;27;102283;-56
2021/10/31 03:59:22;;;;;;;8.13;6.00;;;;;;;14.45;65.66;102157.75;5033864;27;104065;-56
2021/10/31 04:01:49;;;;;;;7.22;6.30;;;;;;;14.44;65.49;102161.59;5031817;27;102144;-56
2021/10/31 04:04:17;;;;;;;7.78;6.55;;;;;;;14.44;65.59;102156.13;5034770;27;102934;-56
2021/10/31 04:06:43;;;;;;;8.43;6.72;;;;;;;14.45;65.56;102157.75;5027386;27;102335;-55
2021/10/31 04:09:09;;;;;;;7.35;6.28;;;;;;;14.44;65.59;102153.38;5029936;28;103908;-56
2021/10/31 04:11:36;;;;;;;7.55;6.47;;;;;;;14.44;65.45;102156.13;5035681;27;102235;-56
2021/10/31 04:14:02;;;;;;;7.57;5.72;;;;;;;14.44;65.64;102145.16;5035046;27;102531;-56
2021/10/31 04:16:29;;;;;;;7.45;6.65;;;;;;;14.45;65.43;102141.31;5036355;27;102157;-56
2021/10/31 04:18:55;;;;;;;7.60;6.55;;;;;;;14.45;65.51;102145.97;5032401;27;103903;-56
2021/10/31 04:21:23;;;;;;;6.93;5.60;;;;;;;14.45;65.73;102148.72;5033159;27;102660;-56
2021/10/31 04:23:49;;;;;;;7.28;6.15;;;;;;;14.44;65.46;102147.91;5031942;27;102157;-56
2021/10/31 04:26:16;;;;;;;7.55;6.50;;;;;;;14.44;65.41;102145.16;5032742;27;102375;-56
2021/10/31 04:28:42;;;;;;;7.93;6.28;;;;;;;14.44;65.72;102139.69;5035248;27;104125;-56
2021/10/31 04:31:10;;;;;;;8.88;7.03;;;;;;;14.44;65.74;102142.41;5035611;27;102279;-56
2021/10/31 04:33:36;;;;;;;8.30;6.57;;;;;;;14.44;65.64;102139.69;5035603;27;102482;-56
2021/10/31 04:36:03;;;;;;;6.82;6.13;;;;;;;14.44;65.44;102139.69;5037263;27;102318;-56
2021/10/31 04:38:32;;;;;;;7.60;6.80;;;;;;;14.45;65.42;102141.31;5028410;27;104317;-57
2021/10/31 04:40:59;;;;;;;7.80;6.57;;;;;;;14.44;65.64;102139.69;5028299;27;102322;-57
2021/10/31 04:43:26;;;;;;;6.78;6.05;;;;;;;14.45;65.67;102137.75;5036464;27;101989;-55
2021/10/31 04:45:54;;;;;;;8.15;6.68;;;;;;;14.43;65.66;102138.88;5037020;27;102247;-56
2021/10/31 04:48:23;;;;;;;7.25;6.45;;;;;;;14.44;65.58;102131.47;5033466;27;105076;-56
2021/10/31 04:50:50;;;;;;;7.55;6.60;;;;;;;14.44;65.28;102139.69;5035792;27;102218;-55
2021/10/31 04:53:16;;;;;;;7.80;6.72;;;;;;;14.43;65.66;102138.03;5032094;27;102465;-56
2021/10/31 04:55:44;;;;;;;7.65;6.35;;;;;;;14.43;65.66;102122.44;5031203;27;102626;-56
2021/10/31 04:58:11;;;;;;;9.15;6.65;;;;;;;14.43;65.79;102127.91;5035160;27;103942;-57
2021/10/31 05:00:38;;;;;;;9.30;6.53;;;;;;;14.43;65.51;102127.09;5029740;27;105528;-56
2021/10/31 05:03:04;;;;;;;8.32;6.70;;;;;;;14.43;65.35;102138.88;5031075;28;102366;-56
2021/10/31 05:05:31;;;;;;;9.45;7.00;;;;;;;14.43;65.48;102124.34;5027718;27;103058;-56
2021/10/31 05:07:58;;;;;;;7.55;6.50;;;;;;;14.43;65.66;102127.91;5035482;27;103937;-56
2021/10/31 05:10:27;;;;;;;9.05;7.05;;;;;;;14.44;65.47;102128.72;5032843;27;102224;-57
2021/10/31 05:12:55;;;;;;;8.43;7.00;;;;;;;14.44;65.62;102117.78;5028629;27;103529;-56
2021/10/31 05:15:21;;;;;;;7.80;7.00;;;;;;;14.43;65.60;102127.09;5026026;27;102718;-56
2021/10/31 05:17:49;;;;;;;9.45;6.90;;;;;;;14.45;65.66;102124.06;5029981;27;103852;-58
2021/10/31 05:20:16;;;;;;;8.80;6.32;;;;;;;14.44;65.52;102120.50;5027688;27;102239;-60
2021/10/31 05:22:42;;;;;;;9.18;6.90;;;;;;;14.43;65.54;102127.91;5039209;27;103271;-56
2021/10/31 05:25:11;;;;;;;8.15;7.05;;;;;;;14.44;65.58;102128.72;5050939;27;102234;-56
2021/10/31 05:27:38;;;;;;;7.65;6.75;;;;;;;14.43;65.62;102133.38;5049713;27;103950;-56
2021/10/31 05:30:08;;;;;;;8.02;6.55;;;;;;;14.43;65.86;102132.56;5047237;27;102063;-56
2021/10/31 05:32:36;;;;;;;8.55;6.65;;;;;;;14.43;65.49;102133.38;5044692;27;101911;-56
2021/10/31 05:35:05;;;;;;;8.43;6.82;;;;;;;14.43;65.73;102133.38;5029933;28;102519;-56
2021/10/31 05:37:37;;;;;;;11.02;6.88;;;;;;;14.44;65.75;102134.19;5032353;27;103653;-56
2021/10/31 05:40:06;;;;;;;8.73;7.35;;;;;;;14.44;65.41;102136.94;5035772;27;102001;-56
2021/10/31 05:42:33;;;;;;;;;;;;;;;14.44;65.61;102128.72;5032108;27;102146;-57
2021/10/31 05:44:59;;;;;;;8.90;6.95;;;;;;;14.44;65.59;102134.19;5040581;27;102227;-56
2021/10/31 05:47:28;;;;;;;8.75;6.22;;;;;;;14.43;65.58;102133.38;5035346;27;102952;-56
2021/10/31 05:49:55;;;;;;;7.70;6.22;;;;;;;14.45;65.58;102129.53;5030487;27;102701;-56
2021/10/31 05:52:22;;;;;;;8.43;6.88;;;;;;;14.43;65.75;102129.81;5032551;27;102040;-56
2021/10/31 05:54:48;;;;;;;7.35;6.40;;;;;;;14.42;65.46;102137.22;5035923;27;102214;-56
2021/10/31 05:57:15;;;;;;;8.73;6.72;;;;;;;14.43;65.54;102144.34;5035680;27;103685;-56
2021/10/31 05:59:43;;;;;;;9.13;6.70;;;;;;;14.43;65.46;102154.47;5033695;27;102621;-56
2021/10/31 06:02:10;;;;;;;8.18;6.70;;;;;;;14.44;65.60;102156.13;5031630;27;101994;-56
2021/10/31 06:04:40;;;;;;;9.13;6.88;;;;;;;14.44;65.64;102150.63;5035943;27;102236;-56
2021/10/31 06:07:06;;;;;;;9.57;7.10;;;;;;;14.44;65.71;102150.63;5035472;27;104792;-56
2021/10/31 06:09:34;;;;;;;8.10;7.00;;;;;;;14.44;65.63;102150.63;5033339;27;102343;-56
2021/10/31 06:12:04;;;;;;;8.27;6.65;;;;;;;14.44;65.75;102147.91;5032448;27;102428;-56
2021/10/31 06:14:31;;;;;;;8.60;6.95;;;;;;;14.43;65.77;102146.25;5031668;27;102918;-56
2021/10/31 06:16:57;;;;;;;9.23;6.72;;;;;;;14.44;65.52;102139.69;5034676;27;104127;-57
2021/10/31 06:19:24;;;;;;;7.43;6.20;;;;;;;14.44;65.73;102147.91;5031962;27;102353;-57
2021/10/31 06:21:52;;;;;;;8.55;7.30;;;;;;;14.43;65.40;102149.81;5029327;27;102522;-56
2021/10/31 06:24:18;;;;;;;9.27;7.28;;;;;;;14.42;65.55;102142.69;5013568;27;103671;-57
2021/10/31 06:26:44;;;;;;;7.88;6.57;;;;;;;14.43;65.64;102141.59;5012867;27;103916;-56
2021/10/31 06:29:13;;;;;;;7.68;6.85;;;;;;;14.43;65.37;102138.03;5015893;27;102555;-56
2021/10/31 06:31:40;;;;;;;8.75;7.10;;;;;;;14.43;65.57;102138.88;5014460;27;104422;-56
2021/10/31 06:34:07;;;;;;;8.90;6.25;;;;;;;14.44;65.35;102139.69;5007844;27;103159;-56
2021/10/31 06:36:34;;;;;;;9.75;7.38;;;;;;;14.43;65.57;102143.53;5015689;27;104196;-56
2021/10/31 06:39:03;;;;;;;8.57;6.95;;;;;;;14.43;65.76;102143.53;5021797;27;104222;-56
2021/10/31 06:41:30;;;;;;;8.05;7.13;;;;;;;14.43;65.75;102138.03;5032038;27;102628;-56
2021/10/31 06:43:56;;;;;;;8.50;6.88;;;;;;;14.43;65.45;102144.34;5033818;27;102071;-56
2021/10/31 06:46:23;;;;;;;9.73;7.30;;;;;;;14.44;65.72;102142.41;5020749;27;104063;-56
2021/10/31 06:48:51;;;;;;;11.25;7.55;;;;;;;14.42;65.71;102131.75;5034426;27;102336;-56
2021/10/31 06:51:18;;;;;;;8.05;6.75;;;;;;;14.43;65.66;102138.88;5027534;27;102355;-56
2021/10/31 06:53:44;;;;;;;8.52;7.22;;;;;;;14.44;65.53;102142.41;5036370;27;102073;-56
2021/10/31 06:56:13;;;;;;;9.38;7.38;;;;;;;14.44;65.86;102147.91;5014824;27;103916;-56
2021/10/31 06:58:39;;;;;;;9.40;7.40;;;;;;;14.44;65.56;102139.69;5037936;27;105645;-56
2021/10/31 07:01:05;;;;;;;9.38;7.22;;;;;;;14.44;65.72;102147.91;5033344;27;102372;-54
2021/10/31 07:03:32;;;;;;;9.73;7.70;;;;;;;14.44;65.69;102139.69;5029085;27;102855;-56
2021/10/31 07:06:02;;;;;;;10.15;7.75;;;;;;;14.44;65.81;102145.16;5030778;27;103937;-55
2021/10/31 07:08:28;;;;;;;8.65;7.35;;;;;;;14.45;65.80;102146.81;5024483;27;102040;-56
2021/10/31 07:10:55;;;;;;;9.77;7.40;;;;;;;14.45;65.65;102144.06;5036612;27;102212;-56
2021/10/31 07:13:23;;;;;;;10.52;7.63;;;;;;;14.45;65.68;102141.31;5031708;27;102611;-56
2021/10/31 07:15:49;;;;;;;8.93;7.50;;;;;;;14.45;65.21;102135.84;5035165;27;103970;-56
2021/10/31 07:18:15;;;;;;;11.80;7.80;;;;;;;14.44;65.59;102139.69;5037996;27;102399;-56
2021/10/31 07:20:42;;;;;;;9.55;8.00;;;;;;;14.45;65.69;102135.03;5037014;27;102707;-56
2021/10/31 07:23:08;;;;;;;11.25;8.18;;;;;;;14.46;65.66;102136.66;5034050;27;104076;-57
2021/10/31 07:25:34;;;;;;;12.10;8.07;;;;;;;14.46;65.62;102133.94;5033138;27;104126;-56
2021/10/31 07:28:01;;;;;;;12.20;8.00;;;;;;;14.45;65.87;102129.53;5036806;27;102062;-56
2021/10/31 07:30:29;;;;;;;11.30;8.13;;;;;;;14.46;65.70;102126.56;5032143;27;102108;-56
2021/10/31 07:32:58;;;;;;;11.68;8.13;;;;;;;14.46;65.56;102139.41;5037514;27;102440;-56
2021/10/31 07:35:24;;;;;;;11.50;8.10;;;;;;;14.45;65.64;102129.53;5032841;27;104027;-57
2021/10/31 07:37:51;;;;;;;11.80;8.77;;;;;;;14.46;65.81;102133.94;5038384;27;102194;-56
2021/10/31 07:40:17;;;;;;;10.00;7.85;;;;;;;14.46;65.96;102128.44;5035288;27;102365;-56
2021/10/31 07:42:44;;;;;;;10.20;8.07;;;;;;;14.46;65.71;102128.44;5030648;27;102189;-56
2021/10/31 07:45:10;;;;;;;9.43;7.68;;;;;;;14.46;65.63;102125.72;5030569;27;103644;-56
2021/10/31 07:47:42;;;;;;;8.82;7.65;;;;;;;14.45;65.85;102124.88;5032831;27;102376;-56
2021/10/31 07:50:09;;;;;;;10.27;7.97;;;;;;;14.46;65.62;102125.72;5029385;27;104500;-56
2021/10/31 07:52:42;;;;;;;11.60;7.78;;;;;;;14.47;65.48;102124.66;5031470;27;102607;-56
2021/10/31 07:55:10;;;;;;;11.13;8.40;;;;;;;14.46;65.79;102123.81;5035778;27;103852;-56
2021/10/31 07:57:36;;;;;;;11.45;8.52;;;;;;;14.46;65.52;102126.56;5035505;27;102849;-56
2021/10/31 08:00:04;;;;;;;10.48;7.75;;;;;;;14.46;65.92;102126.56;5034676;27;104136;-56
2021/10/31 08:02:30;;;;;;;10.15;8.00;;;;;;;14.46;66.13;102122.97;5029077;28;103585;-57
2021/10/31 08:04:58;;;;;;;9.18;7.82;;;;;;;14.46;65.65;102121.09;5034001;27;103927;-56
2021/10/31 08:07:29;;;;;;;11.10;8.25;;;;;;;14.47;65.74;102111.78;5036120;27;102107;-56
2021/10/31 08:09:58;;;;;;;10.85;8.05;;;;;;;14.46;65.52;102115.59;5032628;27;102066;-56
2021/10/31 08:12:25;;;;;;;14.35;8.57;;;;;;;14.47;65.65;102111.78;5036303;27;102227;-58
2021/10/31 08:14:51;;;;;;;10.43;8.00;;;;;;;14.46;65.61;102109.28;5030905;27;103856;-56
2021/10/31 08:17:17;;;;;;;12.50;8.65;;;;;;;14.48;65.71;102104.38;5026994;27;103435;-56
2021/10/31 08:19:44;;;;;;;12.13;9.02;;;;;;;14.46;65.85;102104.66;5033405;27;102409;-56
2021/10/31 08:22:12;;;;;;;10.90;8.18;;;;;;;14.47;65.84;102105.47;5036179;27;102182;-56
2021/10/31 08:24:38;;;;;;;13.55;8.40;;;;;;;14.47;65.71;102100.81;5032917;27;104396;-56
2021/10/31 08:27:05;;;;;;;10.52;7.60;;;;;;;14.47;65.69;102100.81;5034337;27;102201;-56
2021/10/31 08:29:32;;;;;;;11.27;8.32;;;;;;;14.47;65.72;102100.81;5029066;27;102643;-56
2021/10/31 08:31:59;;;;;;;9.98;7.90;;;;;;;14.47;65.90;102100.81;5035866;27;102446;-57
2021/10/31 08:34:26;;;;;;;11.23;8.75;;;;;;;14.47;65.75;102100.81;5034761;27;104135;-56
2021/10/31 08:36:52;;;;;;;12.00;8.55;;;;;;;14.48;65.63;102091.50;5032492;27;102602;-56
2021/10/31 08:39:20;;;;;;;10.18;8.57;;;;;;;14.48;65.85;102096.97;5034496;27;102928;-56
2021/10/31 08:41:47;;;;;;;9.60;8.43;;;;;;;14.49;65.84;102087.66;5031620;27;102585;-57
2021/10/31 08:44:13;;;;;;;10.65;8.43;;;;;;;14.48;65.68;102088.75;5030594;27;103935;-57
2021/10/31 08:46:40;;;;;;;13.68;8.98;;;;;;;14.49;65.85;102081.34;5020748;27;102385;-56
2021/10/31 08:49:07;;;;;;;13.25;8.93;;;;;;;14.49;65.94;102076.69;5034608;27;102213;-55
2021/10/31 08:51:34;;;;;;;12.45;9.27;;;;;;;14.50;65.89;102067.44;5027726;27;103191;-56
2021/10/31 08:54:01;;;;;;;10.27;9.15;;;;;;;14.50;65.75;102067.44;5027423;27;104140;-56
2021/10/31 08:56:30;;;;;;;13.32;8.98;;;;;;;14.50;65.82;102066.63;5029366;27;102791;-56
2021/10/31 08:58:57;;;;;;;11.05;8.98;;;;;;;14.50;65.58;102064.72;5033582;27;103382;-56
2021/10/31 09:01:23;;;;;;;14.35;9.77;;;;;;;14.50;65.70;102067.44;5035144;27;103227;-56
2021/10/31 09:03:52;;;;;;;12.77;8.77;;;;;;;14.50;65.73;102061.16;5031034;27;104108;-56
2021/10/31 09:06:20;;;;;;;11.52;8.55;;;;;;;14.50;65.83;102064.72;5030804;27;102310;-57
2021/10/31 09:08:47;;;;;;;11.85;9.13;;;;;;;14.50;66.00;102059.22;5034738;27;102074;-56
2021/10/31 09:11:13;;;;;;;11.95;9.63;;;;;;;14.51;65.79;102058.13;5032175;27;102206;-57
2021/10/31 09:13:41;;;;;;;10.73;9.38;;;;;;;14.52;65.85;102061.69;5023987;27;103647;-57
2021/10/31 09:16:08;;;;;;;12.23;9.25;;;;;;;14.51;66.05;102051.84;5027835;27;102009;-57
2021/10/31 09:18:36;;;;;;;11.52;9.93;;;;;;;14.51;65.76;102058.13;5029656;27;102541;-56
2021/10/31 09:21:03;;;;;;;13.00;9.98;;;;;;;14.51;65.93;102049.91;5021045;27;102905;-56
2021/10/31 09:23:29;;;;;;;15.45;11.00;;;;;;;14.51;65.93;102052.66;5028818;27;103945;-56
2021/10/31 09:25:56;;;;;;;15.15;11.20;;;;;;;14.51;65.92;102046.34;5018123;27;103065;-56
2021/10/31 09:28:22;;;;;;;14.52;10.85;;;;;;;14.51;65.69;102052.66;5024150;27;102590;-56
2021/10/31 09:30:50;;;;;;;16.42;12.38;;;;;;;14.51;65.83;102047.19;5029532;28;102674;-57
2021/10/31 09:33:17;;;;;;;17.95;12.10;;;;;;;14.51;65.98;102047.19;5027132;27;103755;-57
2021/10/31 09:35:50;;;;;;;15.30;11.63;;;;;;;14.51;65.75;102043.63;5024609;27;102182;-56
2021/10/31 09:38:18;;;;;;;18.15;12.73;;;;;;;14.51;65.50;102036.22;5026261;27;102189;-56
2021/10/31 09:40:45;;;;;;;16.17;12.00;;;;;;;14.51;65.95;102036.22;5030475;27;102383;-56
2021/10/31 09:43:12;;;;;;;18.30;12.48;;;;;;;14.51;65.97;102036.22;5027189;27;103692;-57
2021/10/31 09:45:39;;;;;;;17.98;12.43;;;;;;;14.51;65.93;102036.22;5024947;27;103567;-56
2021/10/31 09:48:09;;;;;;;17.60;12.82;;;;;;;14.51;65.95;102036.22;5029498;27;102436;-55
2021/10/31 09:50:38;;;;;;;18.20;12.80;;;;;;;14.50;65.98;102034.56;5023997;27;102316;-57
2021/10/31 09:53:05;;;;;;;16.63;12.05;;;;;;;14.50;65.74;102029.09;5022886;28;103907;-56
2021/10/31 09:55:32;;;;;;;21.75;13.60;;;;;;;14.51;66.00;102030.75;5032115;27;103270;-57
2021/10/31 09:58:01;;;;;;;19.73;13.50;;;;;;;14.50;65.98;102018.13;5033934;27;106000;-56
2021/10/31 10:00:36;;;;;;;16.90;13.02;;;;;;;14.51;65.95;102029.91;5024560;27;102247;-56
2021/10/31 10:03:23;;;;;;;17.63;13.23;;;;;;;14.50;65.72;102018.13;5035161;27;103902;-59
2021/10/31 10:06:05;;;;;;;22.30;14.00;;;;;;;14.50;65.78;102023.63;5028672;27;102180;-56
2021/10/31 10:08:32;;;;;;;19.17;12.38;;;;;;;14.49;65.85;102010.97;5025893;27;102297;-57
2021/10/31 10:10:59;;;;;;;17.95;12.93;;;;;;;14.50;65.79;102012.66;5048579;27;102213;-56
2021/10/31 10:13:28;;;;;;;16.98;12.65;;;;;;;14.50;65.86;102023.63;5047805;27;103087;-57
2021/10/31 10:16:19;;;;;;;17.43;12.10;;;;;;;14.50;66.00;102001.72;5045155;27;102550;-56
2021/10/31 10:18:48;;;;;;;18.23;13.15;;;;;;;14.51;66.02;102008.00;5042703;27;102459;-56
2021/10/31 10:21:16;;;;;;;16.60;12.83;;;;;;;14.50;65.58;101996.22;5030619;27;103158;-56
2021/10/31 10:23:48;;;;;;;18.48;13.73;;;;;;;14.50;65.94;101996.22;5032535;28;104480;-56
2021/10/31 10:26:25;;;;;;;17.73;13.38;;;;;;;14.50;65.76;101990.75;5030974;27;102153;-56
2021/10/31 10:28:51;;;;;;;20.70;12.70;;;;;;;14.50;65.77;101988.00;5034705;27;102441;-57
2021/10/31 10:31:20;;;;;;;21.23;14.70;;;;;;;14.50;65.84;101984.44;5035143;27;102389;-57
2021/10/31 10:33:49;;;;;;;18.52;13.05;;;;;;;14.48;65.96;101976.44;5024716;27;103972;-56
2021/10/31 10:36:17;;;;;;;18.90;13.23;;;;;;;14.50;65.98;101982.53;5027758;27;103087;-56
2021/10/31 10:38:44;;;;;;;18.05;13.90;;;;;;;14.50;65.99;101968.03;5024186;27;102040;-56
2021/10/31 10:41:43;;;;;;;21.13;13.65;;;;;;;14.50;65.85;101977.06;5035099;27;102735;-56
2021/10/31 10:44:27;;;;;;;21.63;14.02;;;;;;;14.50;65.87;101968.84;5031808;27;104058;-56
2021/10/31 10:46:56;;;;;;;22.50;14.18;;;;;;;14.49;65.80;101967.13;5030007;27;104340;-57
2021/10/31 10:49:25;;;;;;;21.05;14.00;;;;;;;14.50;65.86;101962.53;5035811;27;102022;-58
2021/10/31 10:52:19;;;;;;;20.48;13.65;;;;;;;14.50;66.06;101960.63;5030444;27;106133;-56
2021/10/31 10:54:49;;;;;;;19.88;13.00;;;;;;;14.49;65.95;101961.66;5030876;27;103910;-57
2021/10/31 10:57:16;;;;;;;21.98;14.18;;;;;;;14.50;66.06;101960.63;5028704;27;102402;-56
2021/10/31 10:59:53;;;;;;;20.60;13.55;;;;;;;14.50;66.12;101952.41;5028522;27;102818;-56
2021/10/31 11:02:20;;;;;;;18.80;12.65;;;;;;;14.50;65.98;101957.88;5027829;27;102482;-56
2021/10/31 11:04:52;;;;;;;21.15;14.38;;;;;;;14.49;65.78;101956.19;5025895;27;103918;-56
2021/10/31 11:07:39;;;;;;;18.20;14.05;;;;;;;14.50;65.96;101957.06;5025963;27;102481;-56
2021/10/31 11:10:12;;;;;;;20.00;13.25;;;;;;;14.50;65.79;101957.88;5029773;27;102372;-54
2021/10/31 11:12:42;;;;;;;27.08;14.50;;;;;;;14.50;65.88;101962.53;5033752;27;102569;-57
2021/10/31 11:15:10;;;;;;;22.25;13.38;;;;;;;14.49;65.88;101955.34;5022955;27;103728;-52
2021/10/31 11:17:40;;;;;;;22.70;13.98;;;;;;;14.46;65.60;101959.47;5030099;27;102175;-52
2021/10/31 11:20:11;;;;;;;22.25;14.48;;;;;;;14.43;65.80;101951.78;5033155;27;105322;-54
2021/10/31 11:22:41;;;;;;;21.67;15.05;;;;;;;14.40;65.75;101947.66;5029569;27;102793;-54